Time;durP1;ratioP1;P1;durP2;ratioP2;P2;SDS_P1;SDS_P2;PMS_P1;PMS_P2;Temp;Humidity;BMP_temperature;BMP_pressure;BME280_temperature;BME280_humidity;BME280_pressure;Samples;Min_cycle;Max_cycle;Signal;HPM_P1;HPM_P2
2020/01/25 00:01:56;;;;;;;11.27;9.57;;;;;;;18.96;36.66;101183.53;;;;-46
2020/01/25 00:04:55;;;;;;;11.43;9.56;;;;;;;18.94;36.64;101180.34;;;;-46
2020/01/25 00:07:55;;;;;;;12.22;9.80;;;;;;;18.93;36.57;101183.69;;;;-47
2020/01/25 00:10:55;;;;;;;12.51;9.92;;;;;;;18.90;36.61;101185.06;;;;-46
2020/01/25 00:13:55;;;;;;;11.59;9.61;;;;;;;18.88;36.64;101187.53;;;;-46
2020/01/25 00:20:17;;;;;;;11.90;9.65;;;;;;;18.86;36.58;101188.41;;;;-47
2020/01/25 00:23:02;;;;;;;11.65;9.65;;;;;;;18.84;36.59;101190.57;;;;-46
2020/01/25 00:25:56;;;;;;;11.39;9.46;;;;;;;18.83;36.60;101188.73;;;;-47
2020/01/25 00:29:08;;;;;;;11.69;9.61;;;;;;;18.80;36.63;101187.83;;;;-47
2020/01/25 00:32:00;;;;;;;11.46;9.79;;;;;;;18.79;36.61;101190.55;;;;-46
2020/01/25 00:34:55;;;;;;;11.07;9.41;;;;;;;18.78;36.63;101192.29;;;;-47
2020/01/25 00:37:55;;;;;;;11.29;9.68;;;;;;;18.77;36.63;101193.50;;;;-47
2020/01/25 00:40:55;;;;;;;11.06;9.37;;;;;;;18.75;36.67;101192.87;;;;-46
2020/01/25 00:43:55;;;;;;;10.93;9.46;;;;;;;18.74;36.67;101195.84;;;;-46
2020/01/25 00:46:55;;;;;;;11.27;9.65;;;;;;;18.71;36.64;101186.63;;;;-47
2020/01/25 00:49:55;;;;;;;11.89;9.67;;;;;;;18.71;36.70;101186.89;;;;-46
2020/01/25 00:52:55;;;;;;;11.39;9.53;;;;;;;18.68;36.71;101182.71;;;;-46
2020/01/25 00:55:56;;;;;;;11.47;9.58;;;;;;;18.67;36.70;101176.46;;;;-46
2020/01/25 00:58:56;;;;;;;10.92;9.36;;;;;;;18.66;36.72;101177.30;;;;-46
2020/01/25 01:02:06;;;;;;;11.83;9.66;;;;;;;18.63;36.75;101178.38;;;;-46
2020/01/25 01:04:57;;;;;;;11.14;9.29;;;;;;;18.63;36.77;101180.89;;;;-47
2020/01/25 01:07:55;;;;;;;11.22;9.61;;;;;;;18.62;36.69;101185.58;;;;-47
2020/01/25 01:10:55;;;;;;;11.62;9.42;;;;;;;18.60;36.68;101188.30;;;;-46
2020/01/25 01:13:55;;;;;;;10.81;9.49;;;;;;;18.59;36.69;101194.09;;;;-46
2020/01/25 01:16:55;;;;;;;11.48;9.48;;;;;;;18.57;36.75;101193.98;;;;-46
2020/01/25 01:19:55;;;;;;;11.15;9.23;;;;;;;18.56;36.67;101192.46;;;;-46
2020/01/25 01:22:55;;;;;;;11.15;9.58;;;;;;;18.55;36.74;101190.27;;;;-46
2020/01/25 01:25:57;;;;;;;10.98;9.61;;;;;;;18.53;36.68;101193.84;;;;-47
2020/01/25 01:28:55;;;;;;;10.33;9.09;;;;;;;18.52;36.73;101193.89;;;;-47
2020/01/25 01:31:55;;;;;;;11.40;9.06;;;;;;;18.51;36.76;101193.79;;;;-46
2020/01/25 01:34:55;;;;;;;10.74;9.59;;;;;;;18.49;36.70;101196.34;;;;-47
2020/01/25 01:37:55;;;;;;;10.66;9.35;;;;;;;18.48;36.74;101193.70;;;;-46
2020/01/25 01:40:55;;;;;;;11.31;9.49;;;;;;;18.47;36.74;101198.49;;;;-50
2020/01/25 01:43:55;;;;;;;10.41;9.11;;;;;;;18.45;36.77;101195.47;;;;-49
2020/01/25 01:46:57;;;;;;;11.29;9.72;;;;;;;18.43;36.75;101194.75;;;;-50
2020/01/25 01:49:55;;;;;;;11.00;9.21;;;;;;;18.42;36.72;101200.14;;;;-49
2020/01/25 01:52:55;;;;;;;10.35;9.23;;;;;;;18.41;36.75;101199.81;;;;-50
2020/01/25 01:55:55;;;;;;;10.51;9.09;;;;;;;18.40;36.80;101202.86;;;;-49
2020/01/25 01:58:55;;;;;;;10.19;8.97;;;;;;;18.37;36.75;101204.96;;;;-49
2020/01/25 02:01:55;;;;;;;10.39;9.03;;;;;;;18.37;36.76;101205.69;;;;-50
2020/01/25 02:04:55;;;;;;;9.86;8.83;;;;;;;18.36;36.79;101206.64;;;;-49
2020/01/25 02:07:55;;;;;;;10.07;8.96;;;;;;;18.35;36.80;101207.25;;;;-49
2020/01/25 02:10:55;;;;;;;10.67;9.32;;;;;;;18.34;36.78;101205.78;;;;-50
2020/01/25 02:13:55;;;;;;;10.02;8.85;;;;;;;18.33;36.78;101202.70;;;;-50
2020/01/25 02:16:55;;;;;;;9.80;8.80;;;;;;;18.32;36.75;101202.70;;;;-49
2020/01/25 02:19:55;;;;;;;10.21;8.80;;;;;;;18.31;36.78;101201.41;;;;-50
2020/01/25 02:22:55;;;;;;;10.44;8.73;;;;;;;18.30;36.76;101203.80;;;;-50
2020/01/25 02:25:55;;;;;;;9.84;8.82;;;;;;;18.30;36.84;101205.26;;;;-50
2020/01/25 02:28:55;;;;;;;9.88;8.84;;;;;;;18.28;36.79;101200.02;;;;-49
2020/01/25 02:32:05;;;;;;;10.10;9.01;;;;;;;18.27;36.85;101201.34;;;;-50
2020/01/25 02:34:56;;;;;;;10.55;8.90;;;;;;;18.25;36.85;101195.80;;;;-49
2020/01/25 02:37:56;;;;;;;9.95;8.78;;;;;;;18.24;36.77;101191.34;;;;-50
2020/01/25 02:40:55;;;;;;;10.79;9.07;;;;;;;18.23;36.84;101191.47;;;;-50
2020/01/25 02:43:55;;;;;;;9.92;8.78;;;;;;;18.22;36.85;101188.80;;;;-50
2020/01/25 02:46:55;;;;;;;10.11;8.69;;;;;;;18.21;36.82;101189.91;;;;-50
2020/01/25 02:49:55;;;;;;;10.17;8.95;;;;;;;18.20;36.84;101187.23;;;;-49
2020/01/25 02:52:55;;;;;;;9.92;8.73;;;;;;;18.18;36.85;101183.53;;;;-49
2020/01/25 02:55:55;;;;;;;9.35;8.27;;;;;;;18.18;36.83;101179.96;;;;-50
2020/01/25 02:58:55;;;;;;;10.17;8.49;;;;;;;18.17;36.80;101179.19;;;;-49
2020/01/25 03:01:55;;;;;;;9.97;8.91;;;;;;;18.16;36.84;101172.48;;;;-50
2020/01/25 03:04:55;;;;;;;9.61;8.61;;;;;;;18.14;36.84;101166.57;;;;-50
2020/01/25 03:07:55;;;;;;;9.57;8.57;;;;;;;18.13;36.91;101164.77;;;;-50
2020/01/25 03:10:56;;;;;;;9.24;8.24;;;;;;;18.13;36.84;101157.41;;;;-50
2020/01/25 03:13:55;;;;;;;9.03;8.03;;;;;;;18.11;36.82;101158.30;;;;-50
2020/01/25 03:16:55;;;;;;;9.69;8.66;;;;;;;18.11;36.82;101156.34;;;;-50
2020/01/25 03:19:55;;;;;;;9.51;8.47;;;;;;;18.08;36.79;101150.27;;;;-49
2020/01/25 03:22:56;;;;;;;8.94;8.03;;;;;;;18.08;36.82;101154.16;;;;-50
2020/01/25 03:25:55;;;;;;;9.37;8.25;;;;;;;18.07;36.88;101158.06;;;;-50
2020/01/25 03:28:55;;;;;;;9.37;8.36;;;;;;;18.06;36.81;101156.81;;;;-50
2020/01/25 03:31:55;;;;;;;9.07;8.02;;;;;;;18.05;36.82;101158.92;;;;-50
2020/01/25 03:34:56;;;;;;;8.99;8.09;;;;;;;18.04;36.84;101155.46;;;;-49
2020/01/25 03:37:55;;;;;;;9.47;8.36;;;;;;;18.03;36.79;101154.12;;;;-49
2020/01/25 03:40:58;;;;;;;9.11;8.18;;;;;;;18.02;36.85;101149.82;;;;-50
2020/01/25 03:43:55;;;;;;;9.14;8.19;;;;;;;18.01;36.88;101146.66;;;;-50
2020/01/25 03:46:57;;;;;;;8.84;7.78;;;;;;;18.01;36.86;101146.48;;;;-49
2020/01/25 03:49:56;;;;;;;9.45;8.23;;;;;;;18.00;36.84;101147.60;;;;-49
2020/01/25 03:52:55;;;;;;;8.92;8.02;;;;;;;18.00;36.83;101144.56;;;;-50
2020/01/25 03:55:55;;;;;;;9.10;8.13;;;;;;;17.99;36.81;101143.00;;;;-50
2020/01/25 03:58:55;;;;;;;8.87;7.97;;;;;;;17.97;36.82;101140.16;;;;-50
2020/01/25 04:01:56;;;;;;;8.88;7.95;;;;;;;17.97;36.81;101137.70;;;;-50
2020/01/25 04:04:55;;;;;;;8.69;7.79;;;;;;;17.96;36.77;101143.16;;;;-50
2020/01/25 04:07:55;;;;;;;8.77;7.87;;;;;;;17.95;36.85;101142.33;;;;-50
2020/01/25 04:10:55;;;;;;;9.24;8.20;;;;;;;17.94;36.80;101137.75;;;;-50
2020/01/25 04:13:55;;;;;;;8.73;7.81;;;;;;;17.94;36.87;101136.52;;;;-50
2020/01/25 04:16:55;;;;;;;8.73;7.77;;;;;;;17.92;36.80;101134.89;;;;-50
2020/01/25 04:19:55;;;;;;;9.34;8.27;;;;;;;17.92;36.80;101136.72;;;;-50
2020/01/25 04:22:56;;;;;;;9.07;8.17;;;;;;;17.92;36.84;101138.00;;;;-50
2020/01/25 04:25:55;;;;;;;9.24;8.01;;;;;;;17.91;36.91;101143.12;;;;-49
2020/01/25 04:28:55;;;;;;;8.85;7.81;;;;;;;17.89;36.83;101145.34;;;;-50
2020/01/25 04:31:56;;;;;;;8.83;7.93;;;;;;;17.88;36.83;101145.45;;;;-49
2020/01/25 04:34:55;;;;;;;8.46;7.56;;;;;;;17.88;36.85;101145.16;;;;-50
2020/01/25 04:37:55;;;;;;;8.59;7.69;;;;;;;17.88;36.91;101149.67;;;;-50
2020/01/25 04:40:55;;;;;;;8.76;7.86;;;;;;;17.87;36.85;101148.72;;;;-53
2020/01/25 04:43:55;;;;;;;8.77;7.87;;;;;;;17.87;36.91;101148.73;;;;-54
2020/01/25 04:46:55;;;;;;;8.83;7.93;;;;;;;17.87;37.03;101150.39;;;;-50
2020/01/25 04:49:56;;;;;;;8.13;7.33;;;;;;;17.89;37.07;101147.23;;;;-50
2020/01/25 04:52:55;;;;;;;8.70;7.82;;;;;;;17.89;37.08;101148.73;;;;-50
2020/01/25 04:55:55;;;;;;;8.36;7.43;;;;;;;17.90;37.06;101152.98;;;;-49
2020/01/25 04:58:58;;;;;;;8.41;7.55;;;;;;;17.93;37.02;101159.84;;;;-49
2020/01/25 05:04:59;;;;;;;8.40;7.51;;;;;;;17.96;37.13;101160.65;;;;-49
2020/01/25 05:07:55;;;;;;;8.09;7.14;;;;;;;17.99;37.23;101160.95;;;;-47
2020/01/25 05:10:55;;;;;;;7.84;7.04;;;;;;;18.02;37.22;101157.84;;;;-54
2020/01/25 05:13:55;;;;;;;8.03;7.11;;;;;;;18.06;37.23;101157.66;;;;-46
2020/01/25 05:16:55;;;;;;;7.69;6.85;;;;;;;18.09;37.19;101161.75;;;;-50
2020/01/25 05:19:55;;;;;;;8.14;7.34;;;;;;;18.13;37.14;101166.67;;;;-46
2020/01/25 05:22:56;;;;;;;8.04;7.23;;;;;;;18.18;37.15;101168.77;;;;-47
2020/01/25 05:25:56;;;;;;;8.01;7.07;;;;;;;18.22;37.17;101169.67;;;;-47
2020/01/25 05:28:55;;;;;;;7.89;7.09;;;;;;;18.26;37.17;101174.98;;;;-50
2020/01/25 05:31:55;;;;;;;7.79;7.00;;;;;;;18.30;37.19;101178.28;;;;-46
2020/01/25 05:34:55;;;;;;;7.85;7.04;;;;;;;18.35;37.20;101179.81;;;;-55
2020/01/25 05:37:55;;;;;;;7.77;6.97;;;;;;;18.39;37.19;101181.00;;;;-50
2020/01/25 05:40:55;;;;;;;7.74;6.93;;;;;;;18.42;37.16;101183.66;;;;-50
2020/01/25 05:43:55;;;;;;;7.99;7.15;;;;;;;18.48;37.14;101187.53;;;;-50
2020/01/25 05:47:30;;;;;;;7.88;7.08;;;;;;;18.53;37.15;101185.21;;;;-50
2020/01/25 05:49:55;;;;;;;7.85;7.05;;;;;;;18.55;37.19;101186.61;;;;-47
2020/01/25 05:52:55;;;;;;;8.00;7.20;;;;;;;18.59;37.19;101192.42;;;;-50
2020/01/25 05:55:55;;;;;;;7.68;6.95;;;;;;;18.62;37.23;101192.72;;;;-50
2020/01/25 05:58:56;;;;;;;7.61;6.81;;;;;;;18.66;37.23;101186.82;;;;-50
2020/01/25 06:02:01;;;;;;;7.77;6.97;;;;;;;18.68;37.18;101186.28;;;;-47
2020/01/25 06:04:55;;;;;;;7.89;6.83;;;;;;;18.72;37.21;101187.02;;;;-50
2020/01/25 06:07:55;;;;;;;7.59;6.79;;;;;;;18.75;37.19;101185.09;;;;-50
2020/01/25 06:10:55;;;;;;;7.43;6.73;;;;;;;18.80;37.06;101187.49;;;;-55
2020/01/25 06:13:55;;;;;;;7.64;6.89;;;;;;;18.84;37.08;101191.14;;;;-51
2020/01/25 06:17:03;;;;;;;7.68;6.88;;;;;;;18.86;37.08;101194.27;;;;-47
2020/01/25 06:19:58;;;;;;;7.49;6.75;;;;;;;18.88;37.11;101196.06;;;;-51
2020/01/25 06:22:55;;;;;;;7.32;6.62;;;;;;;18.91;37.07;101197.01;;;;-50
2020/01/25 06:25:55;;;;;;;7.60;6.80;;;;;;;18.95;37.04;101197.91;;;;-50
2020/01/25 06:28:55;;;;;;;7.61;6.83;;;;;;;18.98;37.04;101197.64;;;;-50
2020/01/25 06:31:55;;;;;;;7.89;7.09;;;;;;;19.01;37.07;101199.83;;;;-50
2020/01/25 06:34:55;;;;;;;7.77;6.98;;;;;;;19.03;37.10;101201.19;;;;-50
2020/01/25 06:37:55;;;;;;;7.29;6.57;;;;;;;19.06;37.10;101196.51;;;;-55
2020/01/25 06:40:55;;;;;;;7.45;6.75;;;;;;;19.08;37.06;101194.84;;;;-50
2020/01/25 06:43:55;;;;;;;7.33;6.63;;;;;;;19.12;37.04;101192.49;;;;-50
2020/01/25 06:46:55;;;;;;;7.77;6.94;;;;;;;19.16;36.93;101188.14;;;;-49
2020/01/25 06:49:58;;;;;;;7.05;6.35;;;;;;;19.19;36.91;101189.10;;;;-50
2020/01/25 06:53:00;;;;;;;8.07;6.87;;;;;;;19.23;36.91;101195.69;;;;-45
2020/01/25 06:55:59;;;;;;;7.19;6.28;;;;;;;19.26;37.10;101194.07;;;;-47
2020/01/25 06:58:55;;;;;;;8.57;6.45;;;;;;;19.27;37.35;101192.72;;;;-46
2020/01/25 07:01:55;;;;;;;7.23;6.49;;;;;;;19.29;37.39;101191.07;;;;-50
2020/01/25 07:05:00;;;;;;;11.17;8.86;;;;;;;19.08;34.25;101188.48;;;;-51
2020/01/25 07:08:11;;;;;;;17.75;14.83;;;;;;;18.58;31.95;101186.34;;;;-51
2020/01/25 07:10:55;;;;;;;18.55;14.20;;;;;;;18.59;33.17;101191.36;;;;-55
2020/01/25 07:13:55;;;;;;;14.17;12.57;;;;;;;18.72;34.31;101193.88;;;;-54
2020/01/25 07:16:55;;;;;;;14.16;12.11;;;;;;;18.80;34.44;101195.86;;;;-49
2020/01/25 07:19:55;;;;;;;14.73;11.44;;;;;;;18.87;34.65;101191.48;;;;-55
2020/01/25 07:22:55;;;;;;;11.93;10.37;;;;;;;18.91;34.71;101192.56;;;;-51
2020/01/25 07:25:55;;;;;;;11.59;10.00;;;;;;;18.94;34.87;101193.84;;;;-55
2020/01/25 07:28:55;;;;;;;11.15;9.21;;;;;;;18.97;34.91;101192.96;;;;-55
2020/01/25 07:31:55;;;;;;;10.82;9.43;;;;;;;18.99;35.02;101203.28;;;;-55
2020/01/25 07:34:55;;;;;;;10.47;8.70;;;;;;;19.00;35.14;101203.80;;;;-55
2020/01/25 07:37:55;;;;;;;10.88;9.26;;;;;;;19.01;35.02;101204.24;;;;-55
2020/01/25 07:40:55;;;;;;;9.61;8.51;;;;;;;19.01;35.19;101208.27;;;;-55
2020/01/25 07:43:55;;;;;;;9.45;8.46;;;;;;;19.01;35.32;101212.61;;;;-51
2020/01/25 07:46:55;;;;;;;9.97;8.63;;;;;;;19.01;35.28;101215.45;;;;-49
2020/01/25 07:49:55;;;;;;;9.47;8.47;;;;;;;19.00;35.34;101212.23;;;;-47
2020/01/25 07:52:55;;;;;;;9.12;8.17;;;;;;;18.99;35.56;101211.94;;;;-49
2020/01/25 07:55:55;;;;;;;8.87;7.92;;;;;;;18.98;35.62;101212.05;;;;-50
2020/01/25 07:58:55;;;;;;;9.35;8.27;;;;;;;18.97;35.71;101212.56;;;;-52
2020/01/25 08:01:55;;;;;;;8.96;7.84;;;;;;;18.96;35.67;101209.48;;;;-55
2020/01/25 08:04:55;;;;;;;9.07;8.09;;;;;;;18.94;35.84;101210.98;;;;-55
2020/01/25 08:07:55;;;;;;;9.22;8.07;;;;;;;18.93;35.78;101210.14;;;;-53
2020/01/25 08:10:55;;;;;;;11.21;8.17;;;;;;;18.93;36.31;101212.81;;;;-51
2020/01/25 08:13:55;;;;;;;9.94;8.15;;;;;;;18.92;36.59;101216.98;;;;-50
2020/01/25 08:16:58;;;;;;;9.38;8.27;;;;;;;18.93;36.79;101215.77;;;;-51
2020/01/25 08:19:55;;;;;;;9.57;8.32;;;;;;;18.94;36.75;101220.23;;;;-49
2020/01/25 08:22:55;;;;;;;12.20;8.02;;;;;;;18.94;36.77;101223.86;;;;-48
2020/01/25 08:25:55;;;;;;;9.31;8.03;;;;;;;18.94;36.78;101225.77;;;;-48
2020/01/25 08:28:55;;;;;;;8.91;8.01;;;;;;;18.95;36.67;101223.59;;;;-47
2020/01/25 08:36:10;;;;;;;10.83;8.42;;;;;;;18.94;36.73;101230.83;;;;-50
2020/01/25 08:38:55;;;;;;;10.08;8.13;;;;;;;18.92;36.62;101231.95;;;;-46
2020/01/25 08:41:55;;;;;;;9.03;7.78;;;;;;;18.92;36.55;101236.13;;;;-45
2020/01/25 08:44:55;;;;;;;8.35;7.51;;;;;;;18.89;36.40;101235.46;;;;-45
2020/01/25 08:47:55;;;;;;;8.55;7.55;;;;;;;18.89;36.49;101238.86;;;;-45
2020/01/25 08:50:55;;;;;;;8.31;7.44;;;;;;;18.88;36.44;101237.13;;;;-53
2020/01/25 08:53:55;;;;;;;8.95;7.82;;;;;;;18.86;36.36;101235.88;;;;-49
2020/01/25 08:56:55;;;;;;;9.34;7.48;;;;;;;18.85;36.30;101232.97;;;;-49
2020/01/25 08:59:55;;;;;;;8.46;7.57;;;;;;;18.84;36.44;101233.02;;;;-49
2020/01/25 09:02:55;;;;;;;8.17;7.29;;;;;;;18.85;36.41;101235.27;;;;-49
2020/01/25 09:05:55;;;;;;;8.53;7.53;;;;;;;18.84;36.40;101237.37;;;;-49
2020/01/25 09:08:55;;;;;;;8.42;7.62;;;;;;;18.84;36.48;101236.16;;;;-49
2020/01/25 09:11:55;;;;;;;8.15;7.31;;;;;;;18.83;36.44;101243.17;;;;-49
2020/01/25 09:14:55;;;;;;;8.17;7.34;;;;;;;18.83;36.44;101246.03;;;;-48
2020/01/25 09:17:55;;;;;;;9.13;7.39;;;;;;;18.83;36.48;101248.08;;;;-49
2020/01/25 09:20:55;;;;;;;8.09;7.28;;;;;;;18.82;36.50;101247.58;;;;-47
2020/01/25 09:23:55;;;;;;;8.14;7.03;;;;;;;18.81;36.44;101251.09;;;;-47
2020/01/25 09:26:55;;;;;;;8.25;7.21;;;;;;;18.82;36.45;101248.98;;;;-47
2020/01/25 09:35:01;;;;;;;8.78;7.59;;;;;;;18.80;36.47;101250.08;;;;-47
2020/01/25 09:37:56;;;;;;;9.29;7.09;;;;;;;18.80;36.47;101252.31;;;;-47
2020/01/25 09:40:56;;;;;;;7.91;6.97;;;;;;;18.80;36.49;101254.75;;;;-47
2020/01/25 09:43:55;;;;;;;8.13;7.28;;;;;;;18.79;36.48;101256.95;;;;-47
2020/01/25 09:46:55;;;;;;;8.13;7.33;;;;;;;18.78;36.53;101256.93;;;;-52
2020/01/25 09:49:55;;;;;;;8.02;7.03;;;;;;;18.78;36.55;101253.31;;;;-52
2020/01/25 09:52:55;;;;;;;8.15;7.09;;;;;;;18.77;36.38;101252.52;;;;-44
2020/01/25 09:55:56;;;;;;;8.05;7.22;;;;;;;18.77;36.38;101252.69;;;;-44
2020/01/25 09:58:55;;;;;;;8.16;7.13;;;;;;;18.76;36.49;101256.14;;;;-44
2020/01/25 10:01:55;;;;;;;8.01;7.21;;;;;;;18.76;36.42;101260.78;;;;-46
2020/01/25 10:04:55;;;;;;;7.91;7.11;;;;;;;18.76;36.54;101261.33;;;;-46
2020/01/25 10:07:55;;;;;;;7.93;7.07;;;;;;;18.76;36.44;101259.38;;;;-46
2020/01/25 10:10:55;;;;;;;7.87;7.01;;;;;;;18.76;36.54;101262.22;;;;-46
2020/01/25 10:13:55;;;;;;;8.04;7.24;;;;;;;18.76;36.48;101256.19;;;;-46
2020/01/25 10:16:55;;;;;;;9.36;7.39;;;;;;;18.76;36.58;101251.84;;;;-45
2020/01/25 10:19:56;;;;;;;8.16;7.11;;;;;;;18.77;36.83;101252.52;;;;-50
2020/01/25 10:22:56;;;;;;;8.55;7.38;;;;;;;18.80;37.22;101253.27;;;;-43
2020/01/25 10:25:56;;;;;;;9.83;7.21;;;;;;;18.82;37.17;101251.83;;;;-45
2020/01/25 10:28:55;;;;;;;8.48;7.57;;;;;;;18.83;37.13;101251.04;;;;-45
2020/01/25 10:31:56;;;;;;;8.71;7.22;;;;;;;18.85;37.09;101250.50;;;;-45
2020/01/25 10:34:55;;;;;;;9.87;7.06;;;;;;;18.86;37.06;101248.05;;;;-43
2020/01/25 10:37:55;;;;;;;8.55;7.04;;;;;;;18.86;37.18;101247.70;;;;-42
2020/01/25 10:40:55;;;;;;;9.05;7.44;;;;;;;18.88;36.96;101241.19;;;;-47
2020/01/25 10:43:56;;;;;;;8.95;7.30;;;;;;;18.91;37.10;101235.40;;;;-46
2020/01/25 10:46:55;;;;;;;8.38;7.37;;;;;;;18.91;37.16;101229.54;;;;-48
2020/01/25 10:49:55;;;;;;;11.67;7.05;;;;;;;18.93;37.26;101229.84;;;;-48
2020/01/25 10:52:55;;;;;;;8.41;7.25;;;;;;;18.98;37.47;101228.84;;;;-50
2020/01/25 10:55:55;;;;;;;9.57;7.31;;;;;;;19.02;37.38;101228.24;;;;-49
2020/01/25 10:58:55;;;;;;;7.71;6.78;;;;;;;19.06;37.53;101221.11;;;;-48
2020/01/25 11:01:56;;;;;;;8.49;7.29;;;;;;;19.09;37.34;101215.60;;;;-50
2020/01/25 11:04:56;;;;;;;8.03;6.98;;;;;;;19.16;37.27;101215.33;;;;-47
2020/01/25 11:07:55;;;;;;;9.92;7.79;;;;;;;19.18;37.07;101208.05;;;;-47
2020/01/25 11:10:55;;;;;;;9.15;7.00;;;;;;;19.22;37.25;101199.37;;;;-48
2020/01/25 11:13:55;;;;;;;8.08;6.59;;;;;;;19.26;37.37;101196.76;;;;-47
2020/01/25 11:16:55;;;;;;;8.25;6.89;;;;;;;19.30;37.29;101188.94;;;;-49
2020/01/25 11:19:55;;;;;;;8.41;6.61;;;;;;;19.36;37.45;101188.78;;;;-49
2020/01/25 11:22:56;;;;;;;11.12;7.09;;;;;;;19.36;37.14;101189.95;;;;-49
2020/01/25 11:25:55;;;;;;;7.58;6.57;;;;;;;19.35;37.00;101184.36;;;;-49
2020/01/25 11:29:45;;;;;;;8.91;7.01;;;;;;;19.35;37.01;101181.02;;;;-49
2020/01/25 11:35:56;;;;;;;7.71;6.39;;;;;;;19.37;36.92;101184.92;;;;-47
2020/01/25 11:38:55;;;;;;;7.85;6.90;;;;;;;19.39;36.91;101179.30;;;;-45
2020/01/25 11:41:55;;;;;;;7.13;6.43;;;;;;;19.39;36.91;101176.67;;;;-49
2020/01/25 11:44:56;;;;;;;10.45;6.70;;;;;;;19.41;36.82;101172.37;;;;-49
2020/01/25 11:47:55;;;;;;;7.91;6.59;;;;;;;19.43;36.79;101168.53;;;;-49
2020/01/25 11:50:55;;;;;;;7.25;6.41;;;;;;;19.43;36.81;101156.69;;;;-49
2020/01/25 11:53:55;;;;;;;6.97;6.21;;;;;;;19.44;36.80;101149.32;;;;-49
2020/01/25 11:56:55;;;;;;;7.01;6.31;;;;;;;19.45;36.80;101151.55;;;;-49
2020/01/25 11:59:55;;;;;;;8.46;6.50;;;;;;;19.49;36.93;101153.33;;;;-46
2020/01/25 12:02:55;;;;;;;7.60;6.38;;;;;;;19.52;37.08;101155.46;;;;-45
2020/01/25 12:05:55;;;;;;;8.59;6.53;;;;;;;19.55;37.20;101158.92;;;;-45
2020/01/25 12:08:55;;;;;;;7.09;6.29;;;;;;;19.58;37.22;101157.09;;;;-48
2020/01/25 12:11:55;;;;;;;8.20;6.54;;;;;;;19.63;37.34;101158.03;;;;-44
2020/01/25 12:14:55;;;;;;;7.11;6.25;;;;;;;19.64;37.46;101153.45;;;;-45
2020/01/25 12:17:55;;;;;;;6.94;6.23;;;;;;;19.66;37.08;101148.77;;;;-46
2020/01/25 12:20:55;;;;;;;8.27;6.61;;;;;;;19.65;36.96;101146.13;;;;-46
2020/01/25 12:23:56;;;;;;;7.29;6.32;;;;;;;19.64;36.94;101139.31;;;;-47
2020/01/25 12:26:55;;;;;;;6.64;5.99;;;;;;;19.64;36.84;101136.02;;;;-47
2020/01/25 12:29:55;;;;;;;7.13;6.43;;;;;;;19.64;36.86;101137.30;;;;-46
2020/01/25 12:32:55;;;;;;;8.91;6.28;;;;;;;19.64;36.86;101129.72;;;;-46
2020/01/25 12:38:58;;;;;;;7.61;6.43;;;;;;;19.64;36.80;101130.44;;;;-46
2020/01/25 12:41:55;;;;;;;6.98;6.23;;;;;;;19.65;36.70;101126.02;;;;-46
2020/01/25 12:44:55;;;;;;;6.89;6.17;;;;;;;19.63;36.75;101124.41;;;;-47
2020/01/25 12:47:55;;;;;;;6.76;6.07;;;;;;;19.64;36.72;101123.02;;;;-46
2020/01/25 12:50:55;;;;;;;6.82;6.11;;;;;;;19.64;36.70;101118.59;;;;-47
2020/01/25 12:53:55;;;;;;;6.33;5.73;;;;;;;19.65;36.67;101112.69;;;;-46
2020/01/25 12:56:55;;;;;;;6.78;6.07;;;;;;;19.64;36.74;101108.20;;;;-46
2020/01/25 13:00:06;;;;;;;6.34;5.74;;;;;;;19.64;36.72;101105.13;;;;-46
2020/01/25 13:02:55;;;;;;;6.69;5.99;;;;;;;19.64;36.76;101097.98;;;;-47
2020/01/25 13:05:55;;;;;;;6.67;5.97;;;;;;;19.65;36.64;101095.53;;;;-46
2020/01/25 13:08:55;;;;;;;6.70;5.97;;;;;;;19.65;36.67;101093.41;;;;-46
2020/01/25 13:11:55;;;;;;;6.59;5.89;;;;;;;19.65;36.65;101088.66;;;;-46
2020/01/25 13:14:55;;;;;;;6.78;6.08;;;;;;;19.67;36.64;101086.31;;;;-47
2020/01/25 13:17:55;;;;;;;6.45;5.85;;;;;;;19.67;36.68;101085.64;;;;-46
2020/01/25 13:20:55;;;;;;;6.96;6.18;;;;;;;19.68;36.68;101091.50;;;;-46
2020/01/25 13:23:55;;;;;;;9.15;6.16;;;;;;;19.70;36.85;101085.24;;;;-45
2020/01/25 13:26:55;;;;;;;9.57;6.73;;;;;;;19.75;38.02;101076.97;;;;-49
2020/01/25 13:29:55;;;;;;;8.49;7.05;;;;;;;19.80;38.14;101069.08;;;;-44
2020/01/25 13:32:55;;;;;;;8.25;7.29;;;;;;;19.82;38.03;101061.74;;;;-45
2020/01/25 13:35:56;;;;;;;16.23;7.61;;;;;;;19.85;37.91;101065.72;;;;-41
2020/01/25 13:38:56;;;;;;;9.87;7.20;;;;;;;19.88;38.85;101062.53;;;;-44
2020/01/25 13:41:55;;;;;;;10.09;7.38;;;;;;;19.92;39.15;101058.98;;;;-40
2020/01/25 13:44:55;;;;;;;10.23;7.30;;;;;;;19.96;39.42;101053.39;;;;-46
2020/01/25 13:47:55;;;;;;;10.30;7.08;;;;;;;19.96;38.70;101048.13;;;;-46
2020/01/25 13:50:55;;;;;;;9.51;7.35;;;;;;;20.00;39.39;101053.30;;;;-44
2020/01/25 13:53:55;;;;;;;13.57;7.23;;;;;;;20.00;38.29;101050.34;;;;-52
2020/01/25 13:56:55;;;;;;;9.42;6.72;;;;;;;20.01;38.18;101049.22;;;;-51
2020/01/25 13:59:55;;;;;;;11.36;7.18;;;;;;;20.01;37.77;101041.17;;;;-62
2020/01/25 14:02:55;;;;;;;11.40;6.48;;;;;;;20.02;38.08;101047.20;;;;-53
2020/01/25 14:05:55;;;;;;;9.41;6.81;;;;;;;20.03;37.95;101048.98;;;;-57
2020/01/25 14:08:55;;;;;;;8.09;6.71;;;;;;;20.06;38.09;101041.27;;;;-53
2020/01/25 14:11:55;;;;;;;7.45;6.72;;;;;;;20.05;37.90;101041.92;;;;-53
2020/01/25 14:14:55;;;;;;;8.15;6.59;;;;;;;20.07;37.93;101045.21;;;;-53
2020/01/25 14:17:56;;;;;;;7.83;7.01;;;;;;;20.09;37.96;101041.36;;;;-56
2020/01/25 14:20:55;;;;;;;8.92;6.97;;;;;;;20.10;37.95;101040.73;;;;-57
2020/01/25 14:23:55;;;;;;;9.34;6.73;;;;;;;20.10;38.17;101038.80;;;;-57
2020/01/25 14:26:55;;;;;;;8.00;6.52;;;;;;;20.11;38.16;101034.58;;;;-63
2020/01/25 14:29:55;;;;;;;7.55;6.54;;;;;;;20.12;38.05;101029.77;;;;-56
2020/01/25 14:32:55;;;;;;;7.08;6.29;;;;;;;20.12;37.90;101022.05;;;;-61
2020/01/25 14:35:55;;;;;;;8.80;6.82;;;;;;;20.14;38.19;101021.48;;;;-53
2020/01/25 14:38:55;;;;;;;7.49;6.55;;;;;;;20.13;38.42;101022.11;;;;-60
2020/01/25 14:41:55;;;;;;;7.58;6.51;;;;;;;20.15;38.45;101018.75;;;;-61
2020/01/25 14:44:55;;;;;;;8.01;6.67;;;;;;;20.14;38.16;101015.52;;;;-52
2020/01/25 14:47:55;;;;;;;10.49;6.80;;;;;;;20.12;37.59;101014.58;;;;-51
2020/01/25 14:50:55;;;;;;;8.15;6.48;;;;;;;20.11;37.52;101010.00;;;;-52
2020/01/25 14:53:55;;;;;;;8.39;6.51;;;;;;;20.09;37.44;101009.39;;;;-52
2020/01/25 14:56:55;;;;;;;7.15;6.42;;;;;;;20.08;37.36;101013.30;;;;-51
2020/01/25 14:59:55;;;;;;;7.13;6.40;;;;;;;20.07;37.24;101012.24;;;;-48
2020/01/25 15:03:01;;;;;;;7.69;6.38;;;;;;;20.05;37.29;101013.98;;;;-48
2020/01/25 15:05:55;;;;;;;7.45;6.48;;;;;;;20.03;37.16;101008.19;;;;-48
2020/01/25 15:08:55;;;;;;;7.29;6.34;;;;;;;20.02;37.24;101011.72;;;;-48
2020/01/25 15:11:55;;;;;;;6.73;6.03;;;;;;;20.01;37.20;101011.38;;;;-45
2020/01/25 15:14:56;;;;;;;6.61;5.91;;;;;;;19.99;37.15;101002.12;;;;-45
2020/01/25 15:17:56;;;;;;;6.91;6.18;;;;;;;19.98;37.08;101000.92;;;;-51
2020/01/25 15:20:55;;;;;;;7.65;6.48;;;;;;;19.96;37.15;100995.93;;;;-51
2020/01/25 15:23:55;;;;;;;7.54;6.09;;;;;;;19.96;37.12;100997.96;;;;-51
2020/01/25 15:26:55;;;;;;;7.30;6.08;;;;;;;19.95;37.09;100998.25;;;;-45
2020/01/25 15:29:55;;;;;;;6.78;6.08;;;;;;;19.94;37.10;100996.52;;;;-47
2020/01/25 15:32:55;;;;;;;6.99;6.26;;;;;;;19.93;37.09;100997.52;;;;-49
2020/01/25 15:35:55;;;;;;;7.22;6.23;;;;;;;19.92;37.09;100997.13;;;;-48
2020/01/25 15:38:55;;;;;;;6.65;6.01;;;;;;;19.91;37.07;100996.64;;;;-45
2020/01/25 15:41:55;;;;;;;7.27;6.53;;;;;;;19.91;37.02;100993.89;;;;-45
2020/01/25 15:47:55;;;;;;;7.46;5.94;;;;;;;19.90;37.04;100999.03;;;;-45
2020/01/25 15:50:55;;;;;;;6.89;6.20;;;;;;;19.89;37.00;101004.85;;;;-48
2020/01/25 15:53:55;;;;;;;7.19;6.15;;;;;;;19.90;37.01;101003.13;;;;-45
2020/01/25 15:56:55;;;;;;;6.63;5.85;;;;;;;19.90;37.00;101008.25;;;;-49
2020/01/25 15:59:55;;;;;;;6.89;6.12;;;;;;;19.90;36.92;101004.56;;;;-49
2020/01/25 16:02:55;;;;;;;6.84;6.13;;;;;;;19.90;37.03;101007.98;;;;-49
2020/01/25 16:05:55;;;;;;;7.20;6.50;;;;;;;19.89;36.99;101003.95;;;;-48
2020/01/25 16:08:55;;;;;;;6.78;6.08;;;;;;;19.89;37.10;101006.42;;;;-48
2020/01/25 16:11:55;;;;;;;7.17;6.47;;;;;;;19.90;36.90;101006.91;;;;-48
2020/01/25 16:14:55;;;;;;;6.82;6.12;;;;;;;19.89;37.07;101008.98;;;;-48
2020/01/25 16:17:55;;;;;;;7.31;6.19;;;;;;;19.89;37.01;101006.09;;;;-49
2020/01/25 16:20:55;;;;;;;6.99;6.29;;;;;;;19.88;36.97;101002.39;;;;-45
2020/01/25 16:23:55;;;;;;;7.14;6.44;;;;;;;19.89;36.98;101006.93;;;;-51
2020/01/25 16:27:05;;;;;;;6.98;6.28;;;;;;;19.89;36.96;101004.34;;;;-45
2020/01/25 16:29:55;;;;;;;7.25;6.12;;;;;;;19.90;36.97;101007.31;;;;-46
2020/01/25 16:32:55;;;;;;;6.48;5.87;;;;;;;19.90;37.00;101012.45;;;;-52
2020/01/25 16:35:55;;;;;;;8.01;6.35;;;;;;;19.90;36.93;101013.45;;;;-45
2020/01/25 16:38:55;;;;;;;7.02;6.32;;;;;;;19.91;36.88;101014.00;;;;-45
2020/01/25 16:41:56;;;;;;;10.30;8.54;;;;;;;19.91;36.47;101018.19;;;;-48
2020/01/25 16:44:55;;;;;;;9.03;7.30;;;;;;;19.92;36.84;101017.64;;;;-45
2020/01/25 16:47:55;;;;;;;11.15;6.87;;;;;;;19.96;37.13;101017.58;;;;-51
2020/01/25 16:50:55;;;;;;;8.09;7.07;;;;;;;19.97;37.38;101021.48;;;;-43
2020/01/25 16:53:55;;;;;;;7.89;6.97;;;;;;;19.98;37.46;101017.52;;;;-47
2020/01/25 16:56:56;;;;;;;8.49;6.93;;;;;;;20.00;37.53;101023.05;;;;-57
2020/01/25 16:59:55;;;;;;;7.93;6.91;;;;;;;20.01;37.75;101024.28;;;;-61
2020/01/25 17:02:55;;;;;;;10.00;7.10;;;;;;;20.03;37.67;101029.98;;;;-60